Aviation Digital Data Service (ADDS)

Output produced by METARs form (0325 UTC 19 August 2019)
found at http://www.aviationweather.gov/metar/data/
 
METAR text: SMJP 190300Z VRB01KT 0500 FG BKN002 23/23 Q1016 BECMG FM0320 1500 BR
Conditions at: SMJP (JOHAN A. PENGEL , SR) observed 0300 UTC 19 August 2019
Temperature: 23.0°C (73°F)
Dewpoint: 23.0°C (73°F) [RH = 100%]
Pressure (altimeter): 30.00 inches Hg (1016.0 mb)
Winds: variable direction winds at 1 MPH (1 knots; 0.5 m/s)
Visibility: 0.31 miles (0.50 km)
Ceiling: 200 feet AGL
Clouds: broken clouds at 200 feet AGL
Weather: FG  (fog)

METAR text: SMJP 190200Z VRB01KT 1500 BR BKN002 23/23 Q1016 NOSIG
Conditions at: SMJP (JOHAN A. PENGEL , SR) observed 0200 UTC 19 August 2019
Temperature: 23.0°C (73°F)
Dewpoint: 23.0°C (73°F) [RH = 100%]
Pressure (altimeter): 30.00 inches Hg (1016.0 mb)
Winds: variable direction winds at 1 MPH (1 knots; 0.5 m/s)
Visibility: 0.93 miles (1.50 km)
Ceiling: 200 feet AGL
Clouds: broken clouds at 200 feet AGL
Weather: BR  (mist)

METAR text: SMJP 190100Z 20003KT 170V270 1500 BR SCT004 24/23 Q1015 NOSIG
Conditions at: SMJP (JOHAN A. PENGEL , SR) observed 0100 UTC 19 August 2019
Temperature: 24.0°C (75°F)
Dewpoint: 23.0°C (73°F) [RH = 94%]
Pressure (altimeter): 29.97 inches Hg (1015.0 mb)
Winds: from the SSW (200 degrees) at 3 MPH (3 knots; 1.5 m/s)
Visibility: 0.93 miles (1.50 km)
Ceiling: at least 12,000 feet AGL
Clouds: scattered clouds at 400 feet AGL
Weather: BR  (mist)

METAR text: SMJP 190000Z VRB01KT 9999 FEW006 BKN020 24/23 Q1014 NOSIG
Conditions at: SMJP (JOHAN A. PENGEL , SR) observed 0000 UTC 19 August 2019
Temperature: 24.0°C (75°F)
Dewpoint: 23.0°C (73°F) [RH = 94%]
Pressure (altimeter): 29.94 inches Hg (1014.0 mb)
Winds: variable direction winds at 1 MPH (1 knots; 0.5 m/s)
Visibility: 6 or more miles (10+ km)
Ceiling: 2000 feet AGL
Clouds: few clouds at 600 feet AGL
broken clouds at 2000 feet AGL
Weather: no significant weather observed at this time

METAR text: SMJP 182300Z 31003KT 9999 SCT006 BKN020 24/24 Q1014 NOSIG
Conditions at: SMJP (JOHAN A. PENGEL , SR) observed 2300 UTC 18 August 2019
Temperature: 24.0°C (75°F)
Dewpoint: 24.0°C (75°F) [RH = 100%]
Pressure (altimeter): 29.94 inches Hg (1014.0 mb)
Winds: from the NW (310 degrees) at 3 MPH (3 knots; 1.5 m/s)
Visibility: 6 or more miles (10+ km)
Ceiling: 2000 feet AGL
Clouds: scattered clouds at 600 feet AGL
broken clouds at 2000 feet AGL
Weather: no significant weather observed at this time

METAR text: SMJP 182200Z VRB02KT 9999 -SHRA FEW008 FEW018CB BKN020 24/23 Q1014 NOSIG
Conditions at: SMJP (JOHAN A. PENGEL , SR) observed 2200 UTC 18 August 2019
Temperature: 24.0°C (75°F)
Dewpoint: 23.0°C (73°F) [RH = 94%]
Pressure (altimeter): 29.94 inches Hg (1014.0 mb)
Winds: variable direction winds at 2 MPH (2 knots; 1.0 m/s)
Visibility: 6 or more miles (10+ km)
Ceiling: 2000 feet AGL
Clouds: few clouds at 800 feet AGL
few clouds at 1800 feet AGL
broken clouds at 2000 feet AGL
Weather: -SHRA  (light rain showers)

METAR text: SMJP 182100Z VRB02KT 9999 FEW010 FEW018CB BKN025 24/23 Q1013 RETS NOSIG
Conditions at: SMJP (JOHAN A. PENGEL , SR) observed 2100 UTC 18 August 2019
Temperature: 24.0°C (75°F)
Dewpoint: 23.0°C (73°F) [RH = 94%]
Pressure (altimeter): 29.91 inches Hg (1013.0 mb)
Winds: variable direction winds at 2 MPH (2 knots; 1.0 m/s)
Visibility: 6 or more miles (10+ km)
Ceiling: 2500 feet AGL
Clouds: few clouds at 1000 feet AGL
few clouds at 1800 feet AGL
broken clouds at 2500 feet AGL
Weather: no significant weather observed at this time

METAR text: SMJP 182000Z 23002KT 9000 -TSRA FEW008 FEW015CB BKN020 23/23 Q1013 RESHRA NOSIG
Conditions at: SMJP (JOHAN A. PENGEL , SR) observed 2000 UTC 18 August 2019
Temperature: 23.0°C (73°F)
Dewpoint: 23.0°C (73°F) [RH = 100%]
Pressure (altimeter): 29.91 inches Hg (1013.0 mb)
Winds: from the SW (230 degrees) at 2 MPH (2 knots; 1.0 m/s)
Visibility: 6 miles ( 9 km)
Ceiling: 2000 feet AGL
Clouds: few clouds at 800 feet AGL
few clouds at 1500 feet AGL
broken clouds at 2000 feet AGL
Weather: -TSRA  (light rain associated with thunderstorm(s))

METAR text: SMJP 181940Z VRB02KT 9000 -TSRA FEW008 FEW015CB BKN020 24/23 Q1014 NOSIG
Conditions at: SMJP (JOHAN A. PENGEL , SR) observed 1940 UTC 18 August 2019
Temperature: 24.0°C (75°F)
Dewpoint: 23.0°C (73°F) [RH = 94%]
Pressure (altimeter): 29.94 inches Hg (1014.0 mb)
Winds: variable direction winds at 2 MPH (2 knots; 1.0 m/s)
Visibility: 6 miles ( 9 km)
Ceiling: 2000 feet AGL
Clouds: few clouds at 800 feet AGL
few clouds at 1500 feet AGL
broken clouds at 2000 feet AGL
Weather: -TSRA  (light rain associated with thunderstorm(s))

METAR text: SMJP 181917Z 13007KT 2500 TSRA SCT008 SCT012CB BKN020 24/23 Q1014 TEMPO FM1940 8000 -TSRA
Conditions at: SMJP (JOHAN A. PENGEL , SR) observed 1917 UTC 18 August 2019
Temperature: 24.0°C (75°F)
Dewpoint: 23.0°C (73°F) [RH = 94%]
Pressure (altimeter): 29.94 inches Hg (1014.0 mb)
Winds: from the SE (130 degrees) at 8 MPH (7 knots; 3.6 m/s)
Visibility: 1.55 miles (2.49 km)
Ceiling: 2000 feet AGL
Clouds: scattered clouds at 800 feet AGL
scattered clouds at 1200 feet AGL
broken clouds at 2000 feet AGL
Weather: TSRA  (rain associated with thunderstorm(s))

METAR text: SMJP 181900Z 12003KT 050V160 0800 +TSRA BKN008 BKN010CB BKN015 24/23 Q1014 TEMPO FM1920 8000 -TSRA
Conditions at: SMJP (JOHAN A. PENGEL , SR) observed 1900 UTC 18 August 2019
Temperature: 24.0°C (75°F)
Dewpoint: 23.0°C (73°F) [RH = 94%]
Pressure (altimeter): 29.94 inches Hg (1014.0 mb)
Winds: from the ESE (120 degrees) at 3 MPH (3 knots; 1.5 m/s)
Visibility: 0.50 miles (0.80 km)
Ceiling: 800 feet AGL
Clouds: broken clouds at 800 feet AGL
broken clouds at 1000 feet AGL
broken clouds at 1500 feet AGL
Weather: +TSRA  (heavy rain associated with thunderstorm(s))

METAR text: SMJP 181835Z 04018KT 0300 +TSRA BKN006 BKN010CB BKN015 24/23 Q1014 NOSIG
Conditions at: SMJP (JOHAN A. PENGEL , SR) observed 1835 UTC 18 August 2019
Temperature: 24.0°C (75°F)
Dewpoint: 23.0°C (73°F) [RH = 94%]
Pressure (altimeter): 29.94 inches Hg (1014.0 mb)
Winds: from the NE (40 degrees) at 21 MPH (18 knots; 9.3 m/s)
Visibility: 0.19 miles (0.31 km)
Ceiling: 600 feet AGL
Clouds: broken clouds at 600 feet AGL
broken clouds at 1000 feet AGL
broken clouds at 1500 feet AGL
Weather: +TSRA  (heavy rain associated with thunderstorm(s))

METAR text: SMJP 181823Z 04006KT 0700 +TSRA SCT008 BKN012CB BKN015 26/25 Q1013 NOSIG
Conditions at: SMJP (JOHAN A. PENGEL , SR) observed 1823 UTC 18 August 2019
Temperature: 26.0°C (79°F)
Dewpoint: 25.0°C (77°F) [RH = 94%]
Pressure (altimeter): 29.91 inches Hg (1013.0 mb)
Winds: from the NE (40 degrees) at 7 MPH (6 knots; 3.1 m/s)
Visibility: 0.43 miles (0.69 km)
Ceiling: 1200 feet AGL
Clouds: scattered clouds at 800 feet AGL
broken clouds at 1200 feet AGL
broken clouds at 1500 feet AGL
Weather: +TSRA  (heavy rain associated with thunderstorm(s))

METAR text: SMJP 181817Z 25004KT 2000 +TSRA SCT008 SCT012CB BKN015 27/24 Q1013 TEMPO VRB12G22KT 1000
Conditions at: SMJP (JOHAN A. PENGEL , SR) observed 1817 UTC 18 August 2019
Temperature: 27.0°C (81°F)
Dewpoint: 24.0°C (75°F) [RH = 84%]
Pressure (altimeter): 29.91 inches Hg (1013.0 mb)
Winds: from the WSW (250 degrees) at 5 MPH (4 knots; 2.1 m/s)
Visibility: 1.24 miles (2.00 km)
Ceiling: 1500 feet AGL
Clouds: scattered clouds at 800 feet AGL
scattered clouds at 1200 feet AGL
broken clouds at 1500 feet AGL
Weather: +TSRA  (heavy rain associated with thunderstorm(s))

METAR text: SMJP 181800Z VRB02KT 9999 VCSH FEW010 FEW015CB SCT020 30/24 Q1012 NOSIG
Conditions at: SMJP (JOHAN A. PENGEL , SR) observed 1800 UTC 18 August 2019
Temperature: 30.0°C (86°F)
Dewpoint: 24.0°C (75°F) [RH = 70%]
Pressure (altimeter): 29.88 inches Hg (1012.0 mb)
Winds: variable direction winds at 2 MPH (2 knots; 1.0 m/s)
Visibility: 6 or more miles (10+ km)
Ceiling: at least 12,000 feet AGL
Clouds: few clouds at 1000 feet AGL
few clouds at 1500 feet AGL
scattered clouds at 2000 feet AGL
Weather: VCSH  (showers in vicinity)

METAR text: SMJP 181700Z VRB03KT 8000 -SHRA FEW018CB BKN025 31/23 Q1013 NOSIG
Conditions at: SMJP (JOHAN A. PENGEL , SR) observed 1700 UTC 18 August 2019
Temperature: 31.0°C (88°F)
Dewpoint: 23.0°C (73°F) [RH = 63%]
Pressure (altimeter): 29.91 inches Hg (1013.0 mb)
Winds: variable direction winds at 3 MPH (3 knots; 1.5 m/s)
Visibility: 5 miles ( 8 km)
Ceiling: 2500 feet AGL
Clouds: few clouds at 1800 feet AGL
broken clouds at 2500 feet AGL
Weather: -SHRA  (light rain showers)

METAR text: SMJP 181600Z 09004KT 9999 BKN025 30/23 Q1014 NOSIG
Conditions at: SMJP (JOHAN A. PENGEL , SR) observed 1600 UTC 18 August 2019
Temperature: 30.0°C (86°F)
Dewpoint: 23.0°C (73°F) [RH = 66%]
Pressure (altimeter): 29.94 inches Hg (1014.0 mb)
Winds: from the E (90 degrees) at 5 MPH (4 knots; 2.1 m/s)
Visibility: 6 or more miles (10+ km)
Ceiling: 2500 feet AGL
Clouds: broken clouds at 2500 feet AGL
Weather: no significant weather observed at this time

METAR text: SMJP 181500Z 08004KT 9999 SCT020 29/23 Q1015 NOSIG
Conditions at: SMJP (JOHAN A. PENGEL , SR) observed 1500 UTC 18 August 2019
Temperature: 29.0°C (84°F)
Dewpoint: 23.0°C (73°F) [RH = 70%]
Pressure (altimeter): 29.97 inches Hg (1015.0 mb)
Winds: from the E (80 degrees) at 5 MPH (4 knots; 2.1 m/s)
Visibility: 6 or more miles (10+ km)
Ceiling: at least 12,000 feet AGL
Clouds: scattered clouds at 2000 feet AGL
Weather: no significant weather observed at this time

METAR text: SMJP 181400Z 06004KT 9999 SCT015 28/24 Q1015 NOSIG
Conditions at: SMJP (JOHAN A. PENGEL , SR) observed 1400 UTC 18 August 2019
Temperature: 28.0°C (82°F)
Dewpoint: 24.0°C (75°F) [RH = 79%]
Pressure (altimeter): 29.97 inches Hg (1015.0 mb)
Winds: from the ENE (60 degrees) at 5 MPH (4 knots; 2.1 m/s)
Visibility: 6 or more miles (10+ km)
Ceiling: at least 12,000 feet AGL
Clouds: scattered clouds at 1500 feet AGL
Weather: no significant weather observed at this time

METAR text: SMJP 181300Z 07006KT 999 SCT010 27/23 Q1015 NOSIG
Conditions at: SMJP (JOHAN A. PENGEL , SR) observed 1300 UTC 18 August 2019
Temperature: 27.0°C (81°F)
Dewpoint: 23.0°C (73°F) [RH = 79%]
Pressure (altimeter): 29.97 inches Hg (1015.0 mb)
Winds: from the ENE (70 degrees) at 7 MPH (6 knots; 3.1 m/s)
Visibility: missing
Ceiling: at least 12,000 feet AGL
Clouds: scattered clouds at 1000 feet AGL
Weather: no significant weather observed at this time

METAR text: SMJP 181200Z 04006KT 9999 FEW008 SCT025 25/24 Q1015 NOSIG
Conditions at: SMJP (JOHAN A. PENGEL , SR) observed 1200 UTC 18 August 2019
Temperature: 25.0°C (77°F)
Dewpoint: 24.0°C (75°F) [RH = 94%]
Pressure (altimeter): 29.97 inches Hg (1015.0 mb)
Winds: from the NE (40 degrees) at 7 MPH (6 knots; 3.1 m/s)
Visibility: 6 or more miles (10+ km)
Ceiling: at least 12,000 feet AGL
Clouds: few clouds at 800 feet AGL
scattered clouds at 2500 feet AGL
Weather: no significant weather observed at this time

METAR text: SMJP 181100Z VRB02KT 7000 SCT001 SCT022 24/23 Q1015 NOSIG
Conditions at: SMJP (JOHAN A. PENGEL , SR) observed 1100 UTC 18 August 2019
Temperature: 24.0°C (75°F)
Dewpoint: 23.0°C (73°F) [RH = 94%]
Pressure (altimeter): 29.97 inches Hg (1015.0 mb)
Winds: variable direction winds at 2 MPH (2 knots; 1.0 m/s)
Visibility: 4 miles ( 7 km)
Ceiling: at least 12,000 feet AGL
Clouds: scattered clouds at 100 feet AGL
scattered clouds at 2200 feet AGL
Weather: no significant weather observed at this time

METAR text: SMJP 181000Z VRB01KT 9000 FEW001 SCT022 23/23 Q1014 NOSIG
Conditions at: SMJP (JOHAN A. PENGEL , SR) observed 1000 UTC 18 August 2019
Temperature: 23.0°C (73°F)
Dewpoint: 23.0°C (73°F) [RH = 100%]
Pressure (altimeter): 29.94 inches Hg (1014.0 mb)
Winds: variable direction winds at 1 MPH (1 knots; 0.5 m/s)
Visibility: 6 miles ( 9 km)
Ceiling: at least 12,000 feet AGL
Clouds: few clouds at 100 feet AGL
scattered clouds at 2200 feet AGL
Weather: no significant weather observed at this time

METAR text: SMJP 180900Z VRB01KT 9999 FEW001 SCT022 23/23 Q1014 NOSIG
Conditions at: SMJP (JOHAN A. PENGEL , SR) observed 0900 UTC 18 August 2019
Temperature: 23.0°C (73°F)
Dewpoint: 23.0°C (73°F) [RH = 100%]
Pressure (altimeter): 29.94 inches Hg (1014.0 mb)
Winds: variable direction winds at 1 MPH (1 knots; 0.5 m/s)
Visibility: 6 or more miles (10+ km)
Ceiling: at least 12,000 feet AGL
Clouds: few clouds at 100 feet AGL
scattered clouds at 2200 feet AGL
Weather: no significant weather observed at this time

METAR text: SMJP 180800Z VRB01KT 9999 FEW001 BKN022 23/23 Q1014 NOSIG
Conditions at: SMJP (JOHAN A. PENGEL , SR) observed 0800 UTC 18 August 2019
Temperature: 23.0°C (73°F)
Dewpoint: 23.0°C (73°F) [RH = 100%]
Pressure (altimeter): 29.94 inches Hg (1014.0 mb)
Winds: variable direction winds at 1 MPH (1 knots; 0.5 m/s)
Visibility: 6 or more miles (10+ km)
Ceiling: 2200 feet AGL
Clouds: few clouds at 100 feet AGL
broken clouds at 2200 feet AGL
Weather: no significant weather observed at this time

METAR text: SMJP 180500Z 26003KT 8000 -RA SCT005 BKN020 23/23 Q1014 NOSIG
Conditions at: SMJP (JOHAN A. PENGEL , SR) observed 0500 UTC 18 August 2019
Temperature: 23.0°C (73°F)
Dewpoint: 23.0°C (73°F) [RH = 100%]
Pressure (altimeter): 29.94 inches Hg (1014.0 mb)
Winds: from the W (260 degrees) at 3 MPH (3 knots; 1.5 m/s)
Visibility: 5 miles ( 8 km)
Ceiling: 2000 feet AGL
Clouds: scattered clouds at 500 feet AGL
broken clouds at 2000 feet AGL
Weather: -RA  (light rain)

METAR text: SMJP 180400Z 25002KT 9999 FEW030 23/23 Q1015 NOSIG
Conditions at: SMJP (JOHAN A. PENGEL , SR) observed 0400 UTC 18 August 2019
Temperature: 23.0°C (73°F)
Dewpoint: 23.0°C (73°F) [RH = 100%]
Pressure (altimeter): 29.97 inches Hg (1015.0 mb)
Winds: from the WSW (250 degrees) at 2 MPH (2 knots; 1.0 m/s)
Visibility: 6 or more miles (10+ km)
Ceiling: at least 12,000 feet AGL
Clouds: few clouds at 3000 feet AGL
Weather: no significant weather observed at this time

METAR text: SMJP 180300Z VRB02KT 9999 SCT030 23/23 Q1015 NOSIG
Conditions at: SMJP (JOHAN A. PENGEL , SR) observed 0300 UTC 18 August 2019
Temperature: 23.0°C (73°F)
Dewpoint: 23.0°C (73°F) [RH = 100%]
Pressure (altimeter): 29.97 inches Hg (1015.0 mb)
Winds: variable direction winds at 2 MPH (2 knots; 1.0 m/s)
Visibility: 6 or more miles (10+ km)
Ceiling: at least 12,000 feet AGL
Clouds: scattered clouds at 3000 feet AGL
Weather: no significant weather observed at this time

METAR text: SMJP 180200Z VRB02KT 9999 FEW010 SCT030 24/23 Q1015 NOSIG
Conditions at: SMJP (JOHAN A. PENGEL , SR) observed 0200 UTC 18 August 2019
Temperature: 24.0°C (75°F)
Dewpoint: 23.0°C (73°F) [RH = 94%]
Pressure (altimeter): 29.97 inches Hg (1015.0 mb)
Winds: variable direction winds at 2 MPH (2 knots; 1.0 m/s)
Visibility: 6 or more miles (10+ km)
Ceiling: at least 12,000 feet AGL
Clouds: few clouds at 1000 feet AGL
scattered clouds at 3000 feet AGL
Weather: no significant weather observed at this time

METAR text: SMJP 180100Z 23004KT 210V270 9999 SCT010 SCT025 24/23 Q1015 NOSIG
Conditions at: SMJP (JOHAN A. PENGEL , SR) observed 0100 UTC 18 August 2019
Temperature: 24.0°C (75°F)
Dewpoint: 23.0°C (73°F) [RH = 94%]
Pressure (altimeter): 29.97 inches Hg (1015.0 mb)
Winds: from the SW (230 degrees) at 5 MPH (4 knots; 2.1 m/s)
Visibility: 6 or more miles (10+ km)
Ceiling: at least 12,000 feet AGL
Clouds: scattered clouds at 1000 feet AGL
scattered clouds at 2500 feet AGL
Weather: no significant weather observed at this time

METAR text: SMJP 170000Z VRB02KT 9999 FEW010 SCT025 24/23 Q1014 NOSIG
Conditions at: SMJP (JOHAN A. PENGEL , SR) observed 0000 UTC 18 August 2019
Temperature: 24.0°C (75°F)
Dewpoint: 23.0°C (73°F) [RH = 94%]
Pressure (altimeter): 29.94 inches Hg (1014.0 mb)
Winds: variable direction winds at 2 MPH (2 knots; 1.0 m/s)
Visibility: 6 or more miles (10+ km)
Ceiling: at least 12,000 feet AGL
Clouds: few clouds at 1000 feet AGL
scattered clouds at 2500 feet AGL
Weather: no significant weather observed at this time

METAR text: SMJP 172300Z VRB02KT 9999 FEW010 BKN030 24/23 Q1013 NOSIG
Conditions at: SMJP (JOHAN A. PENGEL , SR) observed 2300 UTC 17 August 2019
Temperature: 24.0°C (75°F)
Dewpoint: 23.0°C (73°F) [RH = 94%]
Pressure (altimeter): 29.91 inches Hg (1013.0 mb)
Winds: variable direction winds at 2 MPH (2 knots; 1.0 m/s)
Visibility: 6 or more miles (10+ km)
Ceiling: 3000 feet AGL
Clouds: few clouds at 1000 feet AGL
broken clouds at 3000 feet AGL
Weather: no significant weather observed at this time

METAR text: SMJP 172200Z 22005KT 9999 FEW008 FEW018CB BKN025 25/24 Q1013 RETS NOSIG
Conditions at: SMJP (JOHAN A. PENGEL , SR) observed 2200 UTC 17 August 2019
Temperature: 25.0°C (77°F)
Dewpoint: 24.0°C (75°F) [RH = 94%]
Pressure (altimeter): 29.91 inches Hg (1013.0 mb)
Winds: from the SW (220 degrees) at 6 MPH (5 knots; 2.6 m/s)
Visibility: 6 or more miles (10+ km)
Ceiling: 2500 feet AGL
Clouds: few clouds at 800 feet AGL
few clouds at 1800 feet AGL
broken clouds at 2500 feet AGL
Weather: no significant weather observed at this time

METAR text: SMJP 172100Z 04008KT 9999 -TSRA FEW005 SCT015CB BKN020 25/24 Q1012 RESHRA NOSIG
Conditions at: SMJP (JOHAN A. PENGEL , SR) observed 2100 UTC 17 August 2019
Temperature: 25.0°C (77°F)
Dewpoint: 24.0°C (75°F) [RH = 94%]
Pressure (altimeter): 29.88 inches Hg (1012.0 mb)
Winds: from the NE (40 degrees) at 9 MPH (8 knots; 4.1 m/s)
Visibility: 6 or more miles (10+ km)
Ceiling: 2000 feet AGL
Clouds: few clouds at 500 feet AGL
scattered clouds at 1500 feet AGL
broken clouds at 2000 feet AGL
Weather: -TSRA  (light rain associated with thunderstorm(s))

METAR text: SMJP 172038Z 05010KT 020V080 8000 -TSRA SCT005 SCT015CB BKN018 25/25 Q1012 NOSIG
Conditions at: SMJP (JOHAN A. PENGEL , SR) observed 2038 UTC 17 August 2019
Temperature: 25.0°C (77°F)
Dewpoint: 25.0°C (77°F) [RH = 100%]
Pressure (altimeter): 29.88 inches Hg (1012.0 mb)
Winds: from the NE (50 degrees) at 12 MPH (10 knots; 5.1 m/s)
Visibility: 5 miles ( 8 km)
Ceiling: 1800 feet AGL
Clouds: scattered clouds at 500 feet AGL
scattered clouds at 1500 feet AGL
broken clouds at 1800 feet AGL
Weather: -TSRA  (light rain associated with thunderstorm(s))

METAR text: SMJP 172017Z 04013KT 1200 +TSRA SCT005 SCT012CB BKN018 26/26 Q1012 BECMG TL2200 8000 -TSRA
Conditions at: SMJP (JOHAN A. PENGEL , SR) observed 2017 UTC 17 August 2019
Temperature: 26.0°C (79°F)
Dewpoint: 26.0°C (79°F) [RH = 100%]
Pressure (altimeter): 29.88 inches Hg (1012.0 mb)
Winds: from the NE (40 degrees) at 15 MPH (13 knots; 6.7 m/s)
Visibility: 0.75 miles (1.21 km)
Ceiling: 1800 feet AGL
Clouds: scattered clouds at 500 feet AGL
scattered clouds at 1200 feet AGL
broken clouds at 1800 feet AGL
Weather: +TSRA  (heavy rain associated with thunderstorm(s))

METAR text: SMJP 172012Z 04013KT 2500 TSRA SCT005 SCT015CB 27/26 Q1012 BECMG TL2200 8000 -TSRA
Conditions at: SMJP (JOHAN A. PENGEL , SR) observed 2012 UTC 17 August 2019
Temperature: 27.0°C (81°F)
Dewpoint: 26.0°C (79°F) [RH = 94%]
Pressure (altimeter): 29.88 inches Hg (1012.0 mb)
Winds: from the NE (40 degrees) at 15 MPH (13 knots; 6.7 m/s)
Visibility: 1.55 miles (2.49 km)
Ceiling: at least 12,000 feet AGL
Clouds: scattered clouds at 500 feet AGL
scattered clouds at 1500 feet AGL
Weather: TSRA  (rain associated with thunderstorm(s))

METAR text: SMJP 172000Z 27005KT 8000 -TSRA SCT008 SCT015CB 29/25 Q1011 TEMPO TL2100 3000 TSRA
Conditions at: SMJP (JOHAN A. PENGEL , SR) observed 2000 UTC 17 August 2019
Temperature: 29.0°C (84°F)
Dewpoint: 25.0°C (77°F) [RH = 79%]
Pressure (altimeter): 29.85 inches Hg (1011.0 mb)
Winds: from the W (270 degrees) at 6 MPH (5 knots; 2.6 m/s)
Visibility: 5 miles ( 8 km)
Ceiling: at least 12,000 feet AGL
Clouds: scattered clouds at 800 feet AGL
scattered clouds at 1500 feet AGL
Weather: -TSRA  (light rain associated with thunderstorm(s))

METAR text: SMJP 171900Z 23007KT 200V260 9999 TS VCSH FEW018CB 29/23 Q1012 BECMG TL1920 NSW
Conditions at: SMJP (JOHAN A. PENGEL , SR) observed 1900 UTC 17 August 2019
Temperature: 29.0°C (84°F)
Dewpoint: 23.0°C (73°F) [RH = 70%]
Pressure (altimeter): 29.88 inches Hg (1012.0 mb)
Winds: from the SW (230 degrees) at 8 MPH (7 knots; 3.6 m/s)
Visibility: 6 or more miles (10+ km)
Ceiling: at least 12,000 feet AGL
Clouds: few clouds at 1800 feet AGL
Weather: TS VCSH  (thunderstorm, showers in vicinity)

METAR text: SMJP 171800Z 18013G24KT 150V210 9999 -SHRA FEW018CB SCT025 27/22 Q1012 TEMPO TS
Conditions at: SMJP (JOHAN A. PENGEL , SR) observed 1800 UTC 17 August 2019
Temperature: 27.0°C (81°F)
Dewpoint: 22.0°C (72°F) [RH = 74%]
Pressure (altimeter): 29.88 inches Hg (1012.0 mb)
Winds: from the S (180 degrees) at 15 MPH (13 knots; 6.7 m/s)
gusting to 28 MPH (24 knots; 12.3 m/s)
Visibility: 6 or more miles (10+ km)
Ceiling: at least 12,000 feet AGL
Clouds: few clouds at 1800 feet AGL
scattered clouds at 2500 feet AGL
Weather: -SHRA  (light rain showers)

METAR text: SMJP 171700Z 15006KT 090V200 9999 FEW022TCU SCT025 31/23 Q1013 NOSIG
Conditions at: SMJP (JOHAN A. PENGEL , SR) observed 1700 UTC 17 August 2019
Temperature: 31.0°C (88°F)
Dewpoint: 23.0°C (73°F) [RH = 63%]
Pressure (altimeter): 29.91 inches Hg (1013.0 mb)
Winds: from the SSE (150 degrees) at 7 MPH (6 knots; 3.1 m/s)
Visibility: 6 or more miles (10+ km)
Ceiling: at least 12,000 feet AGL
Clouds: few clouds at 2200 feet AGL
scattered clouds at 2500 feet AGL
Weather: no significant weather observed at this time

METAR text: SMJP 171600Z 14009KT 100V180 9999 SCT020 31/22 Q1014 NOSIG
Conditions at: SMJP (JOHAN A. PENGEL , SR) observed 1600 UTC 17 August 2019
Temperature: 31.0°C (88°F)
Dewpoint: 22.0°C (72°F) [RH = 59%]
Pressure (altimeter): 29.94 inches Hg (1014.0 mb)
Winds: from the SE (140 degrees) at 10 MPH (9 knots; 4.6 m/s)
Visibility: 6 or more miles (10+ km)
Ceiling: at least 12,000 feet AGL
Clouds: scattered clouds at 2000 feet AGL
Weather: no significant weather observed at this time

Forecast for: SMJP (JOHAN A. PENGEL , SR)
Text: TAF SMJP 182200Z 1900/1924 09004KT 9999 FEW010 SCT030 TX32/1918Z TN23/1909Z
Forecast period: 0000 to 1100 UTC 19 August 2019
Forecast type: FROM: standard forecast or significant change
Winds: from the E (90 degrees) at 5 MPH (4 knots; 2.1 m/s)
Visibility: 6 or more miles 10+ km)
Ceiling: at least 12,000 feet AGL
Clouds: few clouds at 1000 feet AGL
scattered clouds at 3000 feet AGL
Weather: no significant weather forecast for this period
Text: PROB30
Forecast period: 0900 to 1000 UTC 19 August 2019
Forecast type: TEMPORARY: The following changes expected for less than half the time period
Winds: calm
Visibility: 1.24 miles (2.00 km)
Ceiling: at least 12,000 feet AGL
Clouds: scattered clouds at 200 feet AGL
Weather: BR  (mist)
Text: TEMPO 1909/1910 00000KT 2000 BR SCT002
Forecast period: 1100 to 2200 UTC 19 August 2019
Forecast type: BECOMING: Conditions expected to become as follows by 1300 UTC 19 August 2019
Winds: from the ESE (120 degrees) at 12 MPH (10 knots; 5.1 m/s)
Visibility: 6 or more miles 10+ km)
Ceiling: at least 12,000 feet AGL
Clouds: scattered clouds at 2000 feet AGL
Weather: no significant weather forecast for this period
Text: BECMG 1911/1913 12010KT SCT020
Forecast period: 1900 to 2200 UTC 19 August 2019
Forecast type: TEMPORARY: The following changes expected for less than half the time period
Visibility: 3 miles (5 km)
Ceiling: at least 12,000 feet AGL
Clouds: few clouds at 1500 feet AGL
scattered clouds at 1800 feet AGL
Weather: SHRA  (rain showers)
Text: TEMPO 1919/1922 5000 SHRA FEW015CB SCT018
Forecast period: 0000 UTC 19 August 2019 to 0000 UTC 20 August 2019
Forecast type: PROBABLE: 30 percent likelihood of the following during this time
Visibility: missing
Ceiling: unknown
Clouds: missing
Weather: TS  (thunderstorm)
Text: PROB30 TS
Forecast period: 2200 UTC 19 August 2019 to 0000 UTC 20 August 2019
Forecast type: FROM: standard forecast or significant change
Winds: from the E (80 degrees) at 5 MPH (4 knots; 2.1 m/s)
Visibility: 6 or more miles 10+ km)
Ceiling: unknown
Clouds: missing
Weather: NSW  (no significant weather)